Time;durP1;ratioP1;P1;durP2;ratioP2;P2;SDS_P1;SDS_P2;PMS_P1;PMS_P2;Temp;Humidity;BMP_temperature;BMP_pressure;BME280_temperature;BME280_humidity;BME280_pressure;Samples;Min_cycle;Max_cycle;Signal;HPM_P1;HPM_P2
2023/03/31 00:01:32;;;;;;;21.38;3.72;;;10.20;99.90;;;;;;5111983;27;20043;-72
2023/03/31 00:04:05;;;;;;;23.63;3.72;;;10.20;99.90;;;;;;5116593;27;20054;-73
2023/03/31 00:06:36;;;;;;;;;;;10.10;99.90;;;;;;5105056;27;20121;-72
2023/03/31 00:09:03;;;;;;;19.58;3.38;;;10.10;99.90;;;;;;5107290;27;20392;-74
2023/03/31 00:11:29;;;;;;;18.38;3.05;;;10.00;99.90;;;;;;5101941;27;20120;-73
2023/03/31 00:13:55;;;;;;;18.17;3.28;;;10.00;99.90;;;;;;5106975;27;20047;-72
2023/03/31 00:16:20;;;;;;;20.67;3.10;;;10.00;99.90;;;;;;5084094;27;20109;-72
2023/03/31 00:18:49;;;;;;;17.65;3.17;;;9.90;99.90;;;;;;5094990;28;20402;-75
2023/03/31 00:21:24;;;;;;;19.60;3.17;;;9.90;99.90;;;;;;5120595;27;20548;-72
2023/03/31 00:23:54;;;;;;;20.05;3.47;;;9.90;99.90;;;;;;5129843;27;20042;-74
2023/03/31 00:26:21;;;;;;;19.08;3.38;;;9.80;99.90;;;;;;5106379;28;20043;-74
2023/03/31 00:28:47;;;;;;;16.65;3.47;;;9.80;99.90;;;;;;5113038;27;20115;-74
2023/03/31 00:31:13;;;;;;;19.98;3.40;;;9.70;99.90;;;;;;5088220;28;20128;-72
2023/03/31 00:33:39;;;;;;;25.70;3.85;;;9.70;99.90;;;;;;5111781;27;20039;-74
2023/03/31 00:36:05;;;;;;;16.77;2.45;;;9.60;99.90;;;;;;5134999;27;20070;-73
2023/03/31 00:38:31;;;;;;;19.38;3.20;;;9.60;99.90;;;;;;5133397;27;20406;-72
2023/03/31 00:40:58;;;;;;;15.18;2.78;;;9.60;99.90;;;;;;5104600;27;20044;-73
2023/03/31 00:43:28;;;;;;;15.90;2.60;;;9.60;99.90;;;;;;5102777;27;20085;-73
2023/03/31 00:46:02;;;;;;;17.80;3.53;;;9.60;99.90;;;;;;5106980;27;20375;-72
2023/03/31 00:48:28;;;;;;;16.33;3.13;;;9.50;99.90;;;;;;5102810;27;20720;-72
2023/03/31 00:50:56;;;;;;;17.77;3.08;;;9.50;99.90;;;;;;5116128;27;20070;-74
2023/03/31 00:53:26;;;;;;;17.25;3.03;;;9.40;99.90;;;;;;5116600;27;20039;-73
2023/03/31 00:55:55;;;;;;;16.83;3.20;;;9.40;99.90;;;;;;5112228;27;20084;-73
2023/03/31 00:58:26;;;;;;;18.13;3.67;;;9.40;99.90;;;;;;5124171;27;20406;-73
2023/03/31 01:00:55;;;;;;;21.30;3.30;;;9.40;99.90;;;;;;5118651;27;20031;-73
2023/03/31 01:03:22;;;;;;;15.50;2.80;;;9.40;99.90;;;;;;5118868;27;20378;-76
2023/03/31 01:05:55;;;;;;;18.92;3.60;;;9.30;99.90;;;;;;5091999;28;20073;-73
2023/03/31 01:08:24;;;;;;;16.00;2.80;;;9.40;99.90;;;;;;5105156;27;20051;-75
2023/03/31 01:10:53;;;;;;;20.20;3.63;;;9.40;99.90;;;;;;5112034;27;20066;-72
2023/03/31 01:13:20;;;;;;;19.00;3.95;;;9.30;99.90;;;;;;5107329;27;20047;-73
2023/03/31 01:15:46;;;;;;;17.25;3.03;;;9.30;99.90;;;;;;5102443;27;20393;-72
2023/03/31 01:18:13;;;;;;;18.33;3.00;;;9.30;99.90;;;;;;5106045;27;20067;-73
2023/03/31 01:21:05;;;;;;;15.70;2.88;;;9.40;99.90;;;;;;5101056;27;20442;-74
2023/03/31 01:23:53;;;;;;;15.63;2.90;;;9.40;99.90;;;;;;5109492;27;20043;-73
2023/03/31 01:26:37;;;;;;;17.23;2.65;;;9.40;99.90;;;;;;5085819;28;20213;-73
2023/03/31 01:29:07;;;;;;;14.50;3.15;;;9.40;99.90;;;;;;5118612;27;20046;-74
2023/03/31 01:31:54;;;;;;;14.68;3.30;;;9.40;99.90;;;;;;5116336;27;20051;-72
2023/03/31 01:34:41;;;;;;;16.60;3.30;;;9.40;99.90;;;;;;5123956;27;20536;-72
2023/03/31 01:37:36;;;;;;;18.17;2.92;;;9.30;99.90;;;;;;5116172;27;20039;-73
2023/03/31 01:40:32;;;;;;;18.05;3.58;;;9.30;99.90;;;;;;5149915;27;20501;-75
2023/03/31 01:43:03;;;;;;;19.98;3.15;;;9.30;99.90;;;;;;5141237;27;20042;-71
2023/03/31 01:45:52;;;;;;;19.77;3.83;;;9.40;99.90;;;;;;5124211;27;20031;-73
2023/03/31 01:48:34;;;;;;;16.13;3.03;;;9.30;99.90;;;;;;5114870;27;20035;-73
2023/03/31 01:51:25;;;;;;;18.92;2.70;;;9.30;99.90;;;;;;5120969;28;20032;-72
2023/03/31 01:54:10;;;;;;;13.55;2.80;;;9.40;99.90;;;;;;5047713;28;20037;-74
2023/03/31 01:56:58;;;;;;;14.57;2.80;;;9.40;99.90;;;;;;5039327;28;20052;-74
2023/03/31 01:59:31;;;;;;;12.43;2.60;;;9.40;99.90;;;;;;5036730;28;20064;-74
2023/03/31 02:02:01;;;;;;;16.88;3.83;;;9.40;99.90;;;;;;5038144;28;20164;-73
2023/03/31 02:04:55;;;;;;;17.40;3.50;;;9.40;99.90;;;;;;5019477;28;20048;-73
2023/03/31 02:07:27;;;;;;;15.55;3.10;;;9.40;99.90;;;;;;5010854;28;20057;-73
2023/03/31 02:09:58;;;;;;;14.10;4.07;;;9.40;99.90;;;;;;5022102;28;20123;-72
2023/03/31 02:12:29;;;;;;;15.32;3.95;;;9.50;99.90;;;;;;5065590;28;20064;-73
2023/03/31 02:14:57;;;;;;;11.75;2.75;;;9.50;99.90;;;;;;5037837;28;20040;-73
2023/03/31 02:17:32;;;;;;;10.73;2.83;;;9.50;99.90;;;;;;5023823;28;20049;-73
2023/03/31 02:20:06;;;;;;;11.32;2.75;;;9.50;99.90;;;;;;5046754;28;20132;-71
2023/03/31 02:22:36;;;;;;;11.93;3.13;;;9.50;99.90;;;;;;5043924;28;20041;-72
2023/03/31 02:25:05;;;;;;;12.27;3.33;;;9.50;99.90;;;;;;5031050;28;20056;-73
2023/03/31 02:27:35;;;;;;;15.93;3.33;;;9.50;99.90;;;;;;5039268;28;20527;-73
2023/03/31 02:30:02;;;;;;;15.75;3.35;;;9.60;99.90;;;;;;5086953;27;20043;-73
2023/03/31 02:32:35;;;;;;;12.43;2.75;;;9.60;99.90;;;;;;5100609;27;20228;-72
2023/03/31 02:35:02;;;;;;;12.25;3.08;;;9.60;99.90;;;;;;5112874;27;20039;-74
2023/03/31 02:37:29;;;;;;;10.77;2.47;;;9.60;99.90;;;;;;5119054;27;20125;-75
2023/03/31 02:39:57;;;;;;;14.30;3.72;;;9.70;99.90;;;;;;5104979;27;20035;-72
2023/03/31 02:42:24;;;;;;;10.90;2.35;;;9.70;99.90;;;;;;5111788;27;20043;-74
2023/03/31 02:44:50;;;;;;;11.32;2.85;;;9.70;99.90;;;;;;5116298;27;20035;-74
2023/03/31 02:47:19;;;;;;;10.65;2.95;;;9.70;99.90;;;;;;5095598;27;20031;-75
2023/03/31 02:49:52;;;;;;;14.70;3.20;;;9.70;99.90;;;;;;5114847;27;20102;-73
2023/03/31 02:52:24;;;;;;;12.43;3.05;;;9.70;99.90;;;;;;5105037;27;20484;-72
2023/03/31 02:55:11;;;;;;;10.07;2.83;;;9.70;99.90;;;;;;5112137;27;20031;-73
2023/03/31 02:57:52;;;;;;;10.15;2.72;;;9.70;99.90;;;;;;5119262;27;20054;-72
2023/03/31 03:00:39;;;;;;;11.88;3.22;;;9.70;99.90;;;;;;5121162;27;20131;-73
2023/03/31 03:03:29;;;;;;;13.02;3.72;;;9.70;99.90;;;;;;5124868;27;20051;-71
2023/03/31 03:06:21;;;;;;;9.57;3.45;;;9.70;99.90;;;;;;5097851;27;20047;-72
2023/03/31 03:09:28;;;;;;;11.18;3.70;;;9.70;99.90;;;;;;5107939;27;20039;-75
2023/03/31 03:12:16;;;;;;;10.55;3.13;;;9.70;99.90;;;;;;5093955;27;20043;-73
2023/03/31 03:14:52;;;;;;;15.05;3.75;;;9.70;99.90;;;;;;5106400;27;20601;-73
2023/03/31 03:17:21;;;;;;;12.50;3.72;;;9.80;99.90;;;;;;5108374;27;20501;-73
2023/03/31 03:19:53;;;;;;;9.32;3.40;;;9.80;99.90;;;;;;5105507;27;20030;-73
2023/03/31 03:22:19;;;;;;;14.27;4.03;;;9.80;99.90;;;;;;5109516;27;20039;-72
2023/03/31 03:24:45;;;;;;;12.32;4.20;;;9.80;99.90;;;;;;5139710;27;20031;-73
2023/03/31 03:27:13;;;;;;;11.77;3.78;;;9.70;99.90;;;;;;5111635;27;20110;-73
2023/03/31 03:29:40;;;;;;;12.77;4.38;;;9.70;99.90;;;;;;5114297;27;20039;-72
2023/03/31 03:32:06;;;;;;;9.55;3.55;;;9.70;99.90;;;;;;5093679;27;20039;-72
2023/03/31 03:34:31;;;;;;;11.27;3.88;;;9.70;99.90;;;;;;5104872;27;20064;-71
2023/03/31 03:36:57;;;;;;;13.93;4.43;;;9.70;99.90;;;;;;5123703;27;20046;-71
2023/03/31 03:39:23;;;;;;;10.70;4.25;;;9.70;99.90;;;;;;5138452;27;20109;-73
2023/03/31 03:41:48;;;;;;;11.73;5.22;;;9.70;99.90;;;;;;5109145;27;20480;-72
2023/03/31 03:44:14;;;;;;;8.68;3.58;;;9.70;99.90;;;;;;5123182;27;20524;-72
2023/03/31 03:46:40;;;;;;;10.63;3.70;;;9.70;99.90;;;;;;5108108;27;20394;-72
2023/03/31 03:49:05;;;;;;;11.32;4.07;;;9.70;99.90;;;;;;5119550;27;20061;-73
2023/03/31 03:51:31;;;;;;;11.02;3.90;;;9.70;99.90;;;;;;5095970;27;20126;-74
2023/03/31 03:53:57;;;;;;;13.02;4.82;;;9.70;99.90;;;;;;5119959;27;20118;-73
2023/03/31 03:56:22;;;;;;;9.77;3.70;;;9.70;99.90;;;;;;5115924;27;20121;-72
2023/03/31 03:58:48;;;;;;;7.88;3.63;;;9.70;99.90;;;;;;5118919;27;20069;-74
2023/03/31 04:01:15;;;;;;;10.85;3.78;;;9.70;99.90;;;;;;5108552;27;20497;-74
2023/03/31 04:03:40;;;;;;;10.77;3.78;;;9.70;99.90;;;;;;5106372;27;20069;-74
2023/03/31 04:06:06;;;;;;;8.63;3.33;;;9.70;99.90;;;;;;5151610;27;20394;-72
2023/03/31 04:08:32;;;;;;;8.95;3.53;;;9.70;99.90;;;;;;5104579;27;20048;-73
2023/03/31 04:10:57;;;;;;;13.27;3.67;;;9.70;99.90;;;;;;5110572;27;20048;-73
2023/03/31 04:13:23;;;;;;;10.85;3.85;;;9.70;99.90;;;;;;5108208;27;20037;-73
2023/03/31 04:15:49;;;;;;;11.25;3.63;;;9.70;99.90;;;;;;5122411;27;20062;-73
2023/03/31 04:18:23;;;;;;;11.48;3.70;;;9.70;99.90;;;;;;5111191;27;20070;-74
2023/03/31 04:21:02;;;;;;;12.30;3.10;;;9.80;99.90;;;;;;5092178;27;20039;-72
2023/03/31 04:23:29;;;;;;;9.82;3.47;;;9.70;99.90;;;;;;5119402;27;20039;-73
2023/03/31 04:25:55;;;;;;;8.20;3.28;;;9.70;99.90;;;;;;5105434;27;21376;-74
2023/03/31 04:28:21;;;;;;;9.05;3.33;;;9.70;99.90;;;;;;5110588;27;20039;-74
2023/03/31 04:30:47;;;;;;;11.32;3.92;;;9.70;99.90;;;;;;5119898;27;20035;-72
2023/03/31 04:33:14;;;;;;;9.82;3.30;;;9.70;99.90;;;;;;5098391;27;20448;-74
2023/03/31 04:35:51;;;;;;;13.50;4.35;;;9.70;99.90;;;;;;5130610;27;20046;-73
2023/03/31 04:38:18;;;;;;;11.52;3.30;;;9.70;99.90;;;;;;5134412;27;20500;-71
2023/03/31 04:40:49;;;;;;;9.60;3.63;;;9.70;99.90;;;;;;5115843;27;20051;-72
2023/03/31 04:43:16;;;;;;;10.43;3.80;;;9.70;99.90;;;;;;5114936;27;20424;-73
2023/03/31 04:45:42;;;;;;;10.00;3.40;;;9.70;99.90;;;;;;5109982;27;20064;-72
2023/03/31 04:48:09;;;;;;;10.82;3.10;;;9.70;99.90;;;;;;5110605;27;20424;-71
2023/03/31 04:50:35;;;;;;;8.13;3.00;;;9.70;99.90;;;;;;5105171;27;20039;-73
2023/03/31 04:53:01;;;;;;;11.45;3.42;;;9.70;99.90;;;;;;5108922;27;20106;-72
2023/03/31 04:55:27;;;;;;;9.80;3.17;;;9.70;99.90;;;;;;5108040;27;20041;-74
2023/03/31 04:57:53;;;;;;;8.40;3.10;;;9.70;99.90;;;;;;5098052;27;20097;-74
2023/03/31 05:00:20;;;;;;;10.65;3.38;;;9.70;99.90;;;;;;5150771;27;20078;-73
2023/03/31 05:02:46;;;;;;;10.52;3.22;;;9.70;99.90;;;;;;5111259;27;20028;-73
2023/03/31 05:05:12;;;;;;;9.13;3.35;;;9.70;99.90;;;;;;5104029;27;20042;-72
2023/03/31 05:07:38;;;;;;;11.18;3.92;;;9.70;99.90;;;;;;5114543;27;20398;-73
2023/03/31 05:10:05;;;;;;;8.90;3.17;;;9.70;99.90;;;;;;5116128;27;20043;-74
2023/03/31 05:12:34;;;;;;;9.82;3.10;;;9.70;99.90;;;;;;5133958;27;20038;-69
2023/03/31 05:15:00;;;;;;;11.45;3.20;;;9.70;99.90;;;;;;5133259;27;20043;-72
2023/03/31 05:17:26;;;;;;;12.48;3.75;;;9.70;99.90;;;;;;5103563;27;20514;-72
2023/03/31 05:19:52;;;;;;;6.78;4.05;;;9.70;99.90;;;;;;5128663;27;20109;-72
2023/03/31 05:22:20;;;;;;;15.23;4.55;;;9.70;99.90;;;;;;5120417;27;20922;-72
2023/03/31 05:24:46;;;;;;;9.20;3.67;;;9.70;99.90;;;;;;5110662;27;20039;-74
2023/03/31 05:27:12;;;;;;;7.65;3.10;;;9.70;99.90;;;;;;5116862;27;20037;-73
2023/03/31 05:29:38;;;;;;;8.73;3.95;;;9.70;99.90;;;;;;5113025;27;20108;-73
2023/03/31 05:32:04;;;;;;;9.05;3.10;;;9.70;99.90;;;;;;5095768;27;20053;-75
2023/03/31 05:34:29;;;;;;;8.80;3.13;;;9.70;99.90;;;;;;5129627;27;20030;-73
2023/03/31 05:36:55;;;;;;;8.00;3.50;;;9.70;99.90;;;;;;5129713;27;21157;-73
2023/03/31 05:39:21;;;;;;;9.43;3.40;;;9.70;99.90;;;;;;5112189;27;20047;-73
2023/03/31 05:41:47;;;;;;;7.35;3.35;;;9.70;99.90;;;;;;5120914;27;20126;-74
2023/03/31 05:44:12;;;;;;;8.77;2.75;;;9.70;99.90;;;;;;5127328;27;20140;-74
2023/03/31 05:46:38;;;;;;;7.55;3.33;;;9.70;99.90;;;;;;5111849;27;20403;-72
2023/03/31 05:49:05;;;;;;;5.95;2.78;;;9.70;99.90;;;;;;5113798;27;20053;-73
2023/03/31 05:51:30;;;;;;;8.23;2.78;;;9.70;99.90;;;;;;5115040;27;20049;-73
2023/03/31 05:53:56;;;;;;;6.68;2.42;;;9.70;99.90;;;;;;5108922;27;20035;-73
2023/03/31 05:56:22;;;;;;;8.88;3.28;;;9.70;99.90;;;;;;5109341;27;20051;-73
2023/03/31 05:58:48;;;;;;;8.05;2.78;;;9.70;99.90;;;;;;5118275;27;20050;-74
2023/03/31 06:01:18;;;;;;;6.95;2.90;;;9.70;99.90;;;;;;5122880;27;20039;-74
2023/03/31 06:03:44;;;;;;;10.18;3.05;;;9.70;99.90;;;;;;5122902;27;20038;-72
2023/03/31 06:06:12;;;;;;;9.05;2.95;;;9.70;99.90;;;;;;5123463;27;20042;-72
2023/03/31 06:08:37;;;;;;;7.80;3.33;;;9.70;99.90;;;;;;5100302;27;20057;-72
2023/03/31 06:11:05;;;;;;;5.75;3.10;;;9.70;99.90;;;;;;5108905;27;20055;-72
2023/03/31 06:13:31;;;;;;;7.50;2.90;;;9.70;99.90;;;;;;5114672;27;20121;-73
2023/03/31 06:15:58;;;;;;;7.90;2.95;;;9.70;99.90;;;;;;5115118;27;20118;-73
2023/03/31 06:18:27;;;;;;;9.63;3.88;;;9.70;99.90;;;;;;5126234;27;20042;-73
2023/03/31 06:20:53;;;;;;;9.07;3.35;;;9.70;99.90;;;;;;5129419;27;20035;-73
2023/03/31 06:23:19;;;;;;;10.48;2.80;;;9.70;99.90;;;;;;5114475;27;20506;-73
2023/03/31 06:25:45;;;;;;;7.63;3.03;;;9.70;99.90;;;;;;5115166;27;20027;-73
2023/03/31 06:28:11;;;;;;;10.02;3.72;;;9.70;99.90;;;;;;5113417;27;20039;-74
2023/03/31 06:30:37;;;;;;;12.23;3.33;;;9.70;99.90;;;;;;5114083;27;20035;-72
2023/03/31 06:33:02;;;;;;;9.65;3.47;;;9.70;99.90;;;;;;5104432;27;20031;-74
2023/03/31 06:35:28;;;;;;;9.30;3.30;;;9.70;99.90;;;;;;5115721;27;20043;-73
2023/03/31 06:37:54;;;;;;;8.30;3.03;;;9.70;99.90;;;;;;5112725;27;20042;-74
2023/03/31 06:40:20;;;;;;;9.65;3.25;;;9.70;99.90;;;;;;5114825;27;20387;-72
2023/03/31 06:42:45;;;;;;;7.65;2.67;;;9.70;99.90;;;;;;5115505;27;20047;-74
2023/03/31 06:45:11;;;;;;;10.75;3.10;;;9.70;99.90;;;;;;5106288;27;20091;-74
2023/03/31 06:47:37;;;;;;;7.22;2.67;;;9.70;99.90;;;;;;5116855;27;20035;-72
2023/03/31 06:50:08;;;;;;;6.03;2.45;;;9.70;99.90;;;;;;5118749;27;20098;-72
2023/03/31 06:52:34;;;;;;;8.52;2.60;;;9.70;99.90;;;;;;5117275;27;20066;-74
2023/03/31 06:55:00;;;;;;;6.82;2.63;;;9.80;99.90;;;;;;5119926;27;20038;-73
2023/03/31 06:57:26;;;;;;;8.43;2.67;;;9.80;99.90;;;;;;5098242;27;20039;-73
2023/03/31 06:59:52;;;;;;;6.55;2.33;;;9.80;99.90;;;;;;5115508;27;20497;-72
2023/03/31 07:02:18;;;;;;;6.60;2.33;;;9.80;99.90;;;;;;5128578;27;20031;-73
2023/03/31 07:04:44;;;;;;;8.30;2.20;;;9.80;99.90;;;;;;5135924;27;20045;-72
2023/03/31 07:07:10;;;;;;;6.80;2.60;;;9.80;99.90;;;;;;5135629;27;20035;-73
2023/03/31 07:09:36;;;;;;;5.30;2.17;;;9.80;99.90;;;;;;5098698;27;20035;-72
2023/03/31 07:12:04;;;;;;;9.95;2.50;;;9.80;99.90;;;;;;5121336;27;20054;-73
2023/03/31 07:14:30;;;;;;;8.15;2.45;;;9.90;99.90;;;;;;5097970;27;20135;-73
2023/03/31 07:16:56;;;;;;;9.52;2.60;;;9.90;99.90;;;;;;5098217;27;20037;-74
2023/03/31 07:19:22;;;;;;;8.00;2.95;;;9.90;99.90;;;;;;5114744;27;20039;-73
2023/03/31 07:21:48;;;;;;;8.60;2.40;;;9.90;99.90;;;;;;5117325;27;20060;-74
2023/03/31 07:24:14;;;;;;;7.57;3.28;;;9.90;99.90;;;;;;5118356;27;20035;-72
2023/03/31 07:26:40;;;;;;;10.32;3.00;;;10.00;99.90;;;;;;5118375;27;20387;-73
2023/03/31 07:29:06;;;;;;;9.23;2.65;;;10.00;99.90;;;;;;5117072;27;20064;-74
2023/03/31 07:31:32;;;;;;;10.25;3.00;;;10.10;99.90;;;;;;5114875;27;20043;-73
2023/03/31 07:33:57;;;;;;;8.02;2.95;;;10.10;99.90;;;;;;5109384;27;20076;-71
2023/03/31 07:36:23;;;;;;;6.72;2.85;;;10.10;99.90;;;;;;5134133;27;20051;-73
2023/03/31 07:38:49;;;;;;;8.82;2.50;;;10.20;99.90;;;;;;5118937;27;20483;-70
2023/03/31 07:41:18;;;;;;;9.90;2.97;;;10.20;99.90;;;;;;5113958;27;20059;-71
2023/03/31 07:43:45;;;;;;;9.95;2.38;;;10.20;99.90;;;;;;5111014;27;20427;-73
2023/03/31 07:46:16;;;;;;;8.18;2.22;;;10.30;99.90;;;;;;5106111;28;20055;-71
2023/03/31 07:48:43;;;;;;;9.57;3.75;;;10.30;99.90;;;;;;5110923;28;20513;-72
2023/03/31 07:51:09;;;;;;;8.57;2.33;;;10.40;99.90;;;;;;5123071;27;20035;-74
2023/03/31 07:53:35;;;;;;;7.20;2.63;;;10.40;99.90;;;;;;5130615;27;20401;-72
2023/03/31 07:56:01;;;;;;;9.48;2.33;;;10.40;99.90;;;;;;5117244;27;20047;-73
2023/03/31 07:58:27;;;;;;;9.10;2.78;;;10.40;99.90;;;;;;5126835;27;20039;-74
2023/03/31 08:00:53;;;;;;;6.97;2.15;;;10.50;99.90;;;;;;5126004;27;20397;-71
2023/03/31 08:03:19;;;;;;;10.07;2.58;;;10.50;99.90;;;;;;5106395;27;20031;-71
2023/03/31 08:05:44;;;;;;;9.55;3.05;;;10.50;99.90;;;;;;5103500;27;20490;-72
2023/03/31 08:08:10;;;;;;;8.65;2.15;;;10.50;99.90;;;;;;5121435;27;20047;-73
2023/03/31 08:10:36;;;;;;;6.38;2.45;;;10.60;99.90;;;;;;5130890;27;20042;-73
2023/03/31 08:13:01;;;;;;;7.95;2.30;;;10.60;99.90;;;;;;5130511;27;20084;-72
2023/03/31 08:15:27;;;;;;;6.00;2.10;;;10.60;99.90;;;;;;5126351;27;20432;-75
2023/03/31 08:17:53;;;;;;;7.95;2.30;;;10.60;99.90;;;;;;5109245;28;20032;-74
2023/03/31 08:20:18;;;;;;;6.07;2.50;;;10.60;99.90;;;;;;5108796;28;20051;-73
2023/03/31 08:22:44;;;;;;;8.80;2.10;;;10.70;99.90;;;;;;5109736;28;20039;-73
2023/03/31 08:25:10;;;;;;;7.28;2.28;;;10.70;99.90;;;;;;5109468;28;20039;-73
2023/03/31 08:27:38;;;;;;;6.82;2.05;;;10.70;99.90;;;;;;5121999;27;20039;-73
2023/03/31 08:30:09;;;;;;;7.93;3.00;;;10.70;99.90;;;;;;5116572;27;20027;-76
2023/03/31 08:32:36;;;;;;;6.40;2.28;;;10.70;99.90;;;;;;5110276;28;20042;-75
2023/03/31 08:35:01;;;;;;;9.52;2.38;;;10.80;99.90;;;;;;5092738;28;20490;-72
2023/03/31 08:37:27;;;;;;;6.03;2.30;;;10.70;99.90;;;;;;5109430;28;20043;-74
2023/03/31 08:39:56;;;;;;;6.90;2.30;;;10.70;99.90;;;;;;5110961;27;20048;-74
2023/03/31 08:42:40;;;;;;;8.00;2.15;;;10.70;99.90;;;;;;5117647;27;20054;-73
2023/03/31 08:45:39;;;;;;;4.10;1.83;;;10.80;99.90;;;;;;5127314;27;20039;-74
2023/03/31 08:48:28;;;;;;;8.23;2.70;;;10.80;99.90;;;;;;4995043;28;20069;-72
2023/03/31 08:51:03;;;;;;;7.75;2.03;;;10.80;99.90;;;;;;5011750;28;20054;-73
2023/03/31 08:53:35;;;;;;;7.32;1.83;;;10.80;99.90;;;;;;5011875;28;20038;-73
2023/03/31 08:56:06;;;;;;;5.80;1.77;;;10.90;99.90;;;;;;5011289;28;20041;-73
2023/03/31 08:58:46;;;;;;;7.18;1.90;;;10.90;99.90;;;;;;5032200;28;20041;-73
2023/03/31 09:01:30;;;;;;;7.68;1.80;;;10.90;99.90;;;;;;5011570;28;20037;-75
2023/03/31 09:04:31;;;;;;;6.38;2.25;;;10.90;99.90;;;;;;4995343;28;20077;-75
2023/03/31 09:07:19;;;;;;;5.75;2.00;;;10.90;99.90;;;;;;5010655;28;20095;-73
2023/03/31 09:10:27;;;;;;;5.15;1.92;;;10.80;99.90;;;;;;5011534;28;20041;-74
2023/03/31 09:13:03;;;;;;;5.18;2.38;;;10.80;99.90;;;;;;4995201;28;20073;-72
2023/03/31 09:15:32;;;;;;;5.88;1.90;;;10.80;99.90;;;;;;5011676;28;20077;-72
2023/03/31 09:18:21;;;;;;;6.50;1.48;;;10.80;99.90;;;;;;5010771;28;20124;-73
2023/03/31 09:20:50;;;;;;;6.30;1.52;;;10.80;99.90;;;;;;5010469;28;20486;-72
2023/03/31 09:23:28;;;;;;;5.05;1.50;;;10.80;99.90;;;;;;5043226;27;20049;-72
2023/03/31 09:25:56;;;;;;;5.40;1.92;;;10.90;99.90;;;;;;5113148;27;20038;-74
2023/03/31 09:28:29;;;;;;;4.78;1.65;;;10.90;99.90;;;;;;5112181;27;20405;-74
2023/03/31 09:30:55;;;;;;;8.02;2.08;;;10.90;99.90;;;;;;5095902;27;20031;-73
2023/03/31 09:33:32;;;;;;;7.22;1.77;;;11.00;99.90;;;;;;5112663;27;20183;-70
2023/03/31 09:36:02;;;;;;;5.70;1.90;;;11.00;99.90;;;;;;5119054;27;20042;-73
2023/03/31 09:38:28;;;;;;;6.53;1.70;;;11.00;99.90;;;;;;5117993;27;20501;-74
2023/03/31 09:40:59;;;;;;;7.20;2.20;;;11.00;99.90;;;;;;5104457;27;20126;-73
2023/03/31 09:43:27;;;;;;;4.50;1.90;;;11.10;99.90;;;;;;5121982;27;20035;-70
2023/03/31 09:45:54;;;;;;;3.97;1.70;;;11.20;99.90;;;;;;5098278;27;20039;-73
2023/03/31 09:48:27;;;;;;;3.95;1.33;;;11.20;99.90;;;;;;5105466;27;20061;-71
2023/03/31 09:50:59;;;;;;;5.65;1.30;;;11.30;99.90;;;;;;5100442;27;20039;-73
2023/03/31 09:53:47;;;;;;;4.55;1.63;;;11.40;99.90;;;;;;5114007;27;20490;-74
2023/03/31 09:56:13;;;;;;;5.05;1.60;;;11.40;99.90;;;;;;5105786;27;20406;-74
2023/03/31 09:58:43;;;;;;;5.20;1.50;;;11.40;99.90;;;;;;5117505;27;20031;-73
2023/03/31 10:01:11;;;;;;;4.43;1.60;;;11.50;99.90;;;;;;5111734;27;20023;-73
2023/03/31 10:03:49;;;;;;;3.80;1.65;;;11.50;99.90;;;;;;5118927;27;20031;-73
2023/03/31 10:06:16;;;;;;;4.88;1.30;;;11.60;99.90;;;;;;5121881;27;20068;-73
2023/03/31 10:09:00;;;;;;;3.65;1.13;;;11.80;99.90;;;;;;5121723;27;20066;-72
2023/03/31 10:11:26;;;;;;;3.75;1.20;;;11.80;99.90;;;;;;5110546;27;20035;-72
2023/03/31 10:13:58;;;;;;;3.50;1.38;;;11.90;99.90;;;;;;5111995;27;20081;-73
2023/03/31 10:16:43;;;;;;;5.72;1.50;;;12.00;99.90;;;;;;5114068;28;20050;-73
2023/03/31 10:19:20;;;;;;;4.25;1.35;;;12.10;99.90;;;;;;5116317;27;20057;-74
2023/03/31 10:21:53;;;;;;;4.47;1.30;;;12.20;99.90;;;;;;5105257;27;20084;-73
2023/03/31 10:24:19;;;;;;;3.55;1.20;;;12.20;99.90;;;;;;5117836;27;20062;-73
2023/03/31 10:26:52;;;;;;;5.00;1.50;;;12.20;99.90;;;;;;5124104;28;20031;-73
2023/03/31 10:29:24;;;;;;;4.97;1.30;;;12.10;99.90;;;;;;5126744;27;20062;-73
2023/03/31 10:31:50;;;;;;;5.07;1.33;;;12.10;99.90;;;;;;5103453;27;20034;-74
2023/03/31 10:34:17;;;;;;;4.15;1.50;;;12.00;99.90;;;;;;5116554;27;20118;-74
2023/03/31 10:36:48;;;;;;;3.58;1.10;;;12.00;99.90;;;;;;5105129;27;20047;-74
2023/03/31 10:39:18;;;;;;;5.13;1.40;;;12.00;99.90;;;;;;5111301;27;20082;-74
2023/03/31 10:41:52;;;;;;;5.63;1.40;;;11.80;99.90;;;;;;5115962;28;20048;-74
2023/03/31 10:44:31;;;;;;;4.38;1.67;;;11.80;99.90;;;;;;5107525;28;20402;-71
2023/03/31 10:47:04;;;;;;;3.67;1.33;;;11.80;99.90;;;;;;5090818;28;20467;-70
2023/03/31 10:49:37;;;;;;;4.15;1.40;;;11.80;99.90;;;;;;5095348;28;20044;-68
2023/03/31 10:52:03;;;;;;;5.15;1.50;;;11.90;99.90;;;;;;5111496;27;20064;-69
2023/03/31 10:54:28;;;;;;;7.20;1.65;;;11.90;99.90;;;;;;5115351;27;20481;-71
2023/03/31 10:57:02;;;;;;;4.55;1.85;;;12.00;99.90;;;;;;5111783;28;20039;-69
2023/03/31 10:59:58;;;;;;;4.50;1.40;;;12.10;99.90;;;;;;5100379;27;20168;-72
2023/03/31 11:02:27;;;;;;;4.28;1.50;;;12.10;99.90;;;;;;5121166;27;20131;-72
2023/03/31 11:05:30;;;;;;;4.95;1.50;;;12.00;99.90;;;;;;5100450;28;20028;-73
2023/03/31 11:08:18;;;;;;;4.65;1.42;;;12.10;99.90;;;;;;5116537;27;20477;-71
2023/03/31 11:10:59;;;;;;;3.70;1.83;;;12.10;99.90;;;;;;5112756;27;20045;-71
2023/03/31 11:13:37;;;;;;;6.50;2.00;;;12.20;99.90;;;;;;5118841;27;20051;-70
2023/03/31 11:16:28;;;;;;;4.82;1.50;;;12.20;99.90;;;;;;5111660;27;20069;-73
2023/03/31 11:19:08;;;;;;;6.20;1.65;;;12.30;99.90;;;;;;5112624;27;20397;-74
2023/03/31 11:22:08;;;;;;;7.32;1.80;;;12.30;99.90;;;;;;5111763;28;20478;-71
2023/03/31 11:24:45;;;;;;;4.38;1.73;;;12.30;99.90;;;;;;5110055;27;20121;-72
2023/03/31 11:27:34;;;;;;;5.72;1.85;;;12.20;99.90;;;;;;5111710;27;20521;-71
2023/03/31 11:30:00;;;;;;;5.25;1.80;;;12.20;99.90;;;;;;5109300;28;20042;-71
2023/03/31 11:32:25;;;;;;;7.25;2.05;;;12.10;99.90;;;;;;5110529;27;20047;-73
2023/03/31 11:35:15;;;;;;;9.02;2.03;;;12.10;99.90;;;;;;5114312;27;20446;-73
2023/03/31 11:38:18;;;;;;;6.00;2.00;;;12.20;99.90;;;;;;5095397;28;20153;-71
2023/03/31 11:41:10;;;;;;;7.10;1.85;;;12.20;99.90;;;;;;5112868;27;20043;-70
2023/03/31 11:43:55;;;;;;;7.75;2.10;;;12.30;99.90;;;;;;5125461;27;20047;-69
2023/03/31 11:46:31;;;;;;;8.25;2.22;;;12.50;99.90;;;;;;5114798;27;20039;-67
2023/03/31 11:49:17;;;;;;;7.45;2.67;;;12.60;99.90;;;;;;5107753;27;20133;-69
2023/03/31 11:51:50;;;;;;;7.47;2.50;;;12.70;99.90;;;;;;5101998;27;20056;-70
2023/03/31 11:54:25;;;;;;;8.10;2.38;;;12.70;99.90;;;;;;5115924;27;20040;-69
2023/03/31 11:56:52;;;;;;;8.07;2.20;;;12.70;99.90;;;;;;5115866;27;20077;-70
2023/03/31 11:59:20;;;;;;;9.48;2.28;;;12.70;99.90;;;;;;5112260;27;20047;-70
2023/03/31 12:02:15;;;;;;;8.82;2.35;;;12.70;99.90;;;;;;5109967;27;20517;-69
2023/03/31 12:05:03;;;;;;;11.63;2.78;;;12.90;99.90;;;;;;5109630;27;20043;-70
2023/03/31 12:07:50;;;;;;;8.27;2.08;;;13.00;99.90;;;;;;5107378;28;20046;-71
2023/03/31 12:10:22;;;;;;;10.95;2.75;;;13.10;99.90;;;;;;5122790;27;20403;-71
2023/03/31 12:13:23;;;;;;;9.57;2.85;;;13.20;99.90;;;;;;5151618;27;20184;-73
2023/03/31 12:16:22;;;;;;;13.88;3.10;;;13.30;99.90;;;;;;5112165;27;20050;-71
2023/03/31 12:19:04;;;;;;;12.13;2.83;;;13.20;99.90;;;;;;5104407;27;20135;-71
2023/03/31 12:21:33;;;;;;;13.93;2.60;;;13.30;99.90;;;;;;5131267;27;20051;-72
2023/03/31 12:23:59;;;;;;;9.23;2.30;;;13.30;99.90;;;;;;5129732;27;20555;-71
2023/03/31 12:26:37;;;;;;;13.18;2.53;;;13.30;99.90;;;;;;5093663;28;20044;-72
2023/03/31 12:29:23;;;;;;;10.60;2.10;;;13.20;99.90;;;;;;5125891;27;20047;-72
2023/03/31 12:31:52;;;;;;;11.02;2.50;;;13.10;99.90;;;;;;5129642;27;20498;-72
2023/03/31 12:34:20;;;;;;;9.18;2.28;;;12.90;99.90;;;;;;5111057;27;20062;-73
2023/03/31 12:36:46;;;;;;;10.15;2.75;;;12.70;99.90;;;;;;5109523;27;20044;-71
2023/03/31 12:39:37;;;;;;;10.65;2.42;;;12.70;99.90;;;;;;5113784;27;20042;-73
2023/03/31 12:42:05;;;;;;;10.05;2.55;;;12.60;99.90;;;;;;5121796;27;20047;-73
2023/03/31 12:44:37;;;;;;;9.82;2.72;;;12.60;99.90;;;;;;5106725;28;20099;-72
2023/03/31 12:47:42;;;;;;;11.43;2.47;;;12.70;99.90;;;;;;5109928;28;20115;-71
2023/03/31 12:50:14;;;;;;;10.13;2.30;;;12.70;99.90;;;;;;5108530;28;20043;-72
2023/03/31 12:52:56;;;;;;;8.80;2.10;;;12.80;99.90;;;;;;5109741;28;20126;-70
2023/03/31 12:55:43;;;;;;;10.55;2.20;;;12.80;99.90;;;;;;5108970;28;20043;-69
2023/03/31 12:58:21;;;;;;;11.45;3.65;;;12.80;99.90;;;;;;5092374;28;20046;-71
2023/03/31 13:01:09;;;;;;;11.40;2.83;;;12.90;99.90;;;;;;5099854;27;20035;-73
2023/03/31 13:03:34;;;;;;;13.30;2.60;;;13.00;99.90;;;;;;5123714;27;20390;-71
2023/03/31 13:06:01;;;;;;;11.25;2.35;;;13.10;99.90;;;;;;5112493;27;20039;-72
2023/03/31 13:08:49;;;;;;;12.90;2.38;;;13.20;99.90;;;;;;5115766;27;20051;-72
2023/03/31 13:11:16;;;;;;;9.40;1.98;;;13.30;99.90;;;;;;5119867;27;20043;-71
2023/03/31 13:14:13;;;;;;;11.32;2.65;;;13.20;99.90;;;;;;5109401;27;20044;-71